createdAt,value
2023-01-17T00:02:48.133Z,97037.81
2023-01-17T00:08:08.547Z,97052.66
2023-01-17T00:13:10.048Z,97075.06
2023-01-17T00:18:11.445Z,97073.75
2023-01-17T00:23:39.363Z,97086.91
2023-01-17T00:28:42.014Z,97086.59
2023-01-17T00:33:43.511Z,97095.31
2023-01-17T00:38:45.005Z,97092.03
2023-01-17T00:44:05.097Z,97109.47
2023-01-17T00:49:25.968Z,97104.22
2023-01-17T00:54:45.870Z,97112.59
2023-01-17T01:00:06.531Z,97119.50
2023-01-17T01:05:27.603Z,97129.88
2023-01-17T01:10:47.694Z,97137.13
2023-01-17T01:16:07.724Z,97147.47
2023-01-17T01:21:27.776Z,97164.63
2023-01-17T01:26:47.906Z,97159.81
2023-01-17T01:32:07.768Z,97150.25
2023-01-17T01:37:09.183Z,97191.09
2023-01-17T01:42:15.389Z,97198.78
2023-01-17T01:47:33.837Z,97207.66
2023-01-17T01:52:40.699Z,97206.19
2023-01-17T01:57:47.585Z,97224.09
2023-01-17T02:02:50.096Z,97227.56
2023-01-17T02:08:01.623Z,97243.53
2023-01-17T02:13:04.041Z,97245.78
2023-01-17T02:18:25.776Z,97246.63
2023-01-17T02:23:44.308Z,97246.56
2023-01-17T02:29:06.967Z,97247.13
2023-01-17T02:34:20.918Z,97259.94
2023-01-17T02:39:27.911Z,97263.44
2023-01-17T02:44:29.245Z,97264.69
2023-01-17T02:49:32.192Z,97269.47
2023-01-17T02:55:04.316Z,97270.16
2023-01-17T03:00:20.843Z,97267.69
2023-01-17T03:05:32.208Z,97278.72
2023-01-17T03:10:35.877Z,97285.66
2023-01-17T03:15:39.919Z,97281.88
2023-01-17T03:20:41.665Z,97305.78
2023-01-17T03:25:42.972Z,97297.63
2023-01-17T03:30:44.323Z,97312.03
2023-01-17T03:35:46.442Z,97310.91
2023-01-17T03:40:47.911Z,97319.28
2023-01-17T03:45:51.794Z,97305.38
2023-01-17T03:50:53.434Z,97306.97
2023-01-17T03:55:54.950Z,97319.56
2023-01-17T04:00:56.397Z,97312.81
2023-01-17T04:05:58.083Z,97318.75
2023-01-17T04:10:59.668Z,97332.22
2023-01-17T04:16:02.750Z,97339.13
2023-01-17T04:21:05.479Z,97330.84
2023-01-17T04:26:06.999Z,97348.66
2023-01-17T04:31:15.723Z,97346.66
2023-01-17T04:36:17.968Z,97346.44
2023-01-17T04:41:19.378Z,97356.69
2023-01-17T04:46:21.242Z,97362.75
2023-01-17T04:51:22.959Z,97381.84
2023-01-17T04:56:24.349Z,97378.84
2023-01-17T05:01:26.867Z,97385.06
2023-01-17T05:06:28.335Z,97379.75
2023-01-17T05:11:29.663Z,97394.22
2023-01-17T05:16:31.264Z,97400.06
2023-01-17T05:21:33.752Z,97396.53
2023-01-17T05:26:35.350Z,97398.72
2023-01-17T05:31:36.842Z,97398.16
2023-01-17T05:36:38.507Z,97410.63
2023-01-17T05:41:40.126Z,97405.59
2023-01-17T05:46:42.140Z,97411.41
2023-01-17T05:51:43.742Z,97398.72
2023-01-17T05:56:45.302Z,97420.13
2023-01-17T06:01:47.121Z,97420.22
2023-01-17T06:06:49.268Z,97418.56
2023-01-17T06:11:53.174Z,97426.59
2023-01-17T06:16:55.622Z,97434.19
2023-01-17T06:21:59.360Z,97427.97
2023-01-17T06:27:00.871Z,97430.00
2023-01-17T06:32:02.920Z,97437.75
2023-01-17T06:37:04.280Z,97440.91
2023-01-17T06:42:05.774Z,97443.97
2023-01-17T06:47:07.109Z,97432.22
2023-01-17T06:52:08.638Z,97448.34
2023-01-17T06:57:11.296Z,97448.91
2023-01-17T07:02:12.782Z,97453.16
2023-01-17T07:07:14.255Z,97448.06
2023-01-17T07:12:15.852Z,97443.63
2023-01-17T07:17:17.393Z,97437.00
2023-01-17T07:22:18.910Z,97440.44
2023-01-17T07:27:20.730Z,97432.03
2023-01-17T07:32:26.724Z,97435.13
2023-01-17T07:37:28.156Z,97424.75
2023-01-17T07:42:29.590Z,97428.59
2023-01-17T07:47:31.490Z,97421.69
2023-01-17T07:52:32.933Z,97417.63
2023-01-17T07:57:34.461Z,97411.47
2023-01-17T08:02:36.018Z,97421.09
2023-01-17T08:07:37.710Z,97427.13
2023-01-17T08:12:39.140Z,97428.84
2023-01-17T08:17:48.777Z,97425.59
2023-01-17T08:22:54.315Z,97403.63
2023-01-17T08:27:57.688Z,97380.81
2023-01-17T08:32:59.048Z,97393.81
2023-01-17T08:38:07.239Z,97391.47
2023-01-17T08:43:08.681Z,97378.38
2023-01-17T08:48:10.058Z,97374.44
2023-01-17T08:53:11.539Z,97371.34
2023-01-17T08:58:14.773Z,97361.72
2023-01-17T09:03:18.444Z,97366.84
2023-01-17T09:08:19.852Z,97376.84
2023-01-17T09:13:21.284Z,97381.25
2023-01-17T09:18:22.785Z,97366.69
2023-01-17T09:23:24.707Z,97388.25
2023-01-17T09:28:27.052Z,97375.41
2023-01-17T09:33:28.405Z,97386.41
2023-01-17T09:38:32.720Z,97396.56
2023-01-17T09:43:39.530Z,97403.75
2023-01-17T09:48:43.864Z,97404.31
2023-01-17T09:53:45.495Z,97398.06
2023-01-17T09:59:32.714Z,97409.72
2023-01-17T10:04:51.922Z,97409.75
2023-01-17T10:10:00.313Z,97397.88
2023-01-17T10:15:39.447Z,97401.56
2023-01-17T10:20:54.098Z,97408.44
2023-01-17T10:26:01.846Z,97396.63
2023-01-17T10:31:10.544Z,97391.69
2023-01-17T10:36:18.334Z,97390.25
2023-01-17T10:41:43.623Z,97385.91
2023-01-17T10:46:52.782Z,97373.25
2023-01-17T10:52:12.346Z,97385.47
2023-01-17T10:57:18.738Z,97387.16
2023-01-17T11:02:25.086Z,97389.59
2023-01-17T11:07:28.785Z,97392.94
2023-01-17T11:12:37.738Z,97383.50
2023-01-17T11:17:48.966Z,97389.09
2023-01-17T11:23:11.667Z,97382.84
2023-01-17T11:28:26.152Z,97382.22
2023-01-17T11:33:55.646Z,97386.66
2023-01-17T11:39:03.454Z,97372.66
2023-01-17T11:44:32.787Z,97359.19
2023-01-17T11:49:34.235Z,97354.59
2023-01-17T11:54:42.609Z,97346.03
2023-01-17T11:59:44.890Z,97330.44
2023-01-17T12:05:08.952Z,97312.66
2023-01-17T12:10:24.554Z,97319.28
2023-01-17T12:15:38.025Z,97317.81
2023-01-17T12:20:55.399Z,97297.56
2023-01-17T12:26:25.127Z,97295.66
2023-01-17T12:31:34.417Z,97288.06
2023-01-17T12:36:58.357Z,97279.31
2023-01-17T12:42:19.067Z,97271.41
2023-01-17T12:47:21.614Z,97275.59
2023-01-17T12:52:35.392Z,97269.34
2023-01-17T12:57:47.827Z,97269.47
2023-01-17T13:03:16.040Z,97254.66
2023-01-17T13:08:55.977Z,97251.19
2023-01-17T13:13:59.964Z,97242.75
2023-01-17T13:19:13.908Z,97234.69
2023-01-17T13:24:28.739Z,97242.16
2023-01-17T13:29:45.246Z,97236.13
2023-01-17T13:35:43.867Z,97241.31
2023-01-17T13:40:58.249Z,97253.50
2023-01-17T13:46:03.071Z,97250.03
2023-01-17T13:51:05.946Z,97241.75
2023-01-17T13:56:19.182Z,97245.63
2023-01-17T14:01:23.713Z,97249.81
2023-01-17T14:06:41.217Z,97264.59
2023-01-17T14:12:10.318Z,97267.63
2023-01-17T14:17:17.731Z,97268.66
2023-01-17T14:22:19.172Z,97265.53
2023-01-17T14:27:25.076Z,97253.59
2023-01-17T14:32:33.057Z,97246.16
2023-01-17T14:37:46.783Z,97254.00
2023-01-17T14:43:03.015Z,97240.66
2023-01-17T14:48:06.921Z,97244.03
2023-01-17T14:53:17.650Z,97240.25
2023-01-17T14:58:39.292Z,97242.78
2023-01-17T15:03:45.974Z,97237.13
2023-01-17T15:08:48.755Z,97242.00
2023-01-17T15:13:54.839Z,97237.19
2023-01-17T15:18:57.300Z,97234.53
2023-01-17T15:23:59.845Z,97251.00
2023-01-17T15:29:07.482Z,97247.94
2023-01-17T15:34:21.027Z,97251.94
2023-01-17T15:39:27.677Z,97246.06
2023-01-17T15:44:39.089Z,97253.69
2023-01-17T15:49:51.911Z,97252.69
2023-01-17T15:54:59.055Z,97257.63
2023-01-17T16:00:07.611Z,97256.66
2023-01-17T16:05:34.331Z,97265.06
2023-01-17T16:10:37.969Z,97263.59
2023-01-17T16:15:42.111Z,97269.53
2023-01-17T16:20:46.830Z,97267.88
2023-01-17T16:25:48.243Z,97270.84
2023-01-17T16:30:54.244Z,97271.84
2023-01-17T16:35:55.791Z,97271.69
2023-01-17T16:40:58.785Z,97265.56
2023-01-17T16:46:01.732Z,97278.25
2023-01-17T16:51:06.606Z,97276.13
2023-01-17T16:56:13.715Z,97278.78
2023-01-17T17:01:17.661Z,97274.16
2023-01-17T17:06:20.693Z,97270.50
2023-01-17T17:11:23.151Z,97275.13
2023-01-17T17:16:30.026Z,97282.53
2023-01-17T17:21:33.891Z,97282.38
2023-01-17T17:26:37.147Z,97276.09
2023-01-17T17:31:40.824Z,97281.19
2023-01-17T17:36:42.977Z,97289.75
2023-01-17T17:41:45.829Z,97281.69
2023-01-17T17:46:49.380Z,97302.41
2023-01-17T17:51:50.982Z,97297.31
2023-01-17T17:56:52.550Z,97303.91
2023-01-17T18:01:56.993Z,97312.31
2023-01-17T18:06:58.505Z,97300.41
2023-01-17T18:12:00.164Z,97308.81
2023-01-17T18:17:01.687Z,97310.47
2023-01-17T18:22:03.782Z,97320.81
2023-01-17T18:27:05.680Z,97306.59
2023-01-17T18:32:07.527Z,97315.78
2023-01-17T18:37:09.235Z,97317.63
2023-01-17T18:42:11.924Z,97317.44
2023-01-17T18:47:13.505Z,97320.38
2023-01-17T18:52:15.091Z,97326.47
2023-01-17T18:57:16.486Z,97331.56
2023-01-17T19:02:19.750Z,97340.28
2023-01-17T19:07:21.664Z,97345.00
2023-01-17T19:12:23.450Z,97349.63
2023-01-17T19:17:24.872Z,97346.88
2023-01-17T19:22:26.162Z,97362.19
2023-01-17T19:27:28.679Z,97367.44
2023-01-17T19:32:34.881Z,97376.63
2023-01-17T19:37:36.743Z,97389.41
2023-01-17T19:42:38.139Z,97396.44
2023-01-17T19:47:40.305Z,97397.25
2023-01-17T19:52:42.091Z,97402.88
2023-01-17T19:57:44.264Z,97400.94
2023-01-17T20:02:45.929Z,97403.81
2023-01-17T20:07:47.356Z,97395.16
2023-01-17T20:12:51.118Z,97404.41
2023-01-17T20:17:54.245Z,97403.28
2023-01-17T20:22:55.823Z,97400.09
2023-01-17T20:27:58.505Z,97403.19
2023-01-17T20:33:00.131Z,97411.25
2023-01-17T20:38:02.712Z,97404.41
2023-01-17T20:43:09.887Z,97410.78
2023-01-17T20:48:11.272Z,97417.25
2023-01-17T20:53:13.137Z,97416.97
2023-01-17T20:58:17.557Z,97424.84
2023-01-17T21:03:20.193Z,97427.78
2023-01-17T21:08:21.691Z,97427.34
2023-01-17T21:13:23.822Z,97425.25
2023-01-17T21:18:29.305Z,97426.22
2023-01-17T21:23:30.770Z,97419.06
2023-01-17T21:28:35.109Z,97424.28
2023-01-17T21:33:36.620Z,97423.19
2023-01-17T21:38:39.428Z,97424.19
2023-01-17T21:43:40.799Z,97423.72
2023-01-17T21:48:45.287Z,97425.16
2023-01-17T21:53:46.636Z,97434.47
2023-01-17T21:58:53.695Z,97441.06
2023-01-17T22:04:00.021Z,97442.75
2023-01-17T22:09:02.645Z,97440.00
2023-01-17T22:14:07.264Z,97444.44
2023-01-17T22:19:08.838Z,97439.19
2023-01-17T22:24:15.931Z,97443.63
2023-01-17T22:29:19.008Z,97440.59
2023-01-17T22:34:20.494Z,97432.72
2023-01-17T22:39:21.910Z,97434.56
2023-01-17T22:44:23.343Z,97427.81
2023-01-17T22:49:24.772Z,97424.63
2023-01-17T22:54:26.106Z,97418.31
2023-01-17T22:59:27.940Z,97423.56
2023-01-17T23:04:31.121Z,97434.09
2023-01-17T23:09:33.098Z,97423.03
2023-01-17T23:14:54.434Z,97421.63
2023-01-17T23:19:55.837Z,97423.00
2023-01-17T23:24:58.763Z,97420.53
2023-01-17T23:30:00.767Z,97415.59
2023-01-17T23:35:02.534Z,97416.84
2023-01-17T23:40:04.668Z,97410.63
2023-01-17T23:45:06.693Z,97409.38
2023-01-17T23:50:09.373Z,97407.28
2023-01-17T23:55:15.125Z,97398.47
